createdAt,value
2023-07-15T00:00:24.197Z,0.00
2023-07-15T00:01:24.220Z,0.00
2023-07-15T00:02:24.147Z,0.00
2023-07-15T00:03:24.117Z,0.00
2023-07-15T00:04:24.132Z,0.00
2023-07-15T00:05:24.027Z,0.00
2023-07-15T00:06:23.990Z,0.00
2023-07-15T00:07:23.951Z,0.00
2023-07-15T00:08:23.919Z,0.00
2023-07-15T00:09:23.892Z,0.00
2023-07-15T00:10:23.857Z,0.00
2023-07-15T00:11:23.821Z,0.00
2023-07-15T00:12:23.776Z,0.00
2023-07-15T00:13:23.748Z,0.00
2023-07-15T00:14:23.708Z,0.00
2023-07-15T00:15:23.676Z,0.00
2023-07-15T00:16:23.668Z,0.00
2023-07-15T00:17:23.602Z,0.00
2023-07-15T00:18:23.587Z,0.00
2023-07-15T00:19:23.862Z,0.00
2023-07-15T00:20:23.497Z,0.00
2023-07-15T00:21:23.465Z,0.00
2023-07-15T00:22:23.522Z,0.00
2023-07-15T00:23:23.401Z,0.00
2023-07-15T00:24:23.368Z,0.00
2023-07-15T00:25:23.329Z,0.00
2023-07-15T00:26:23.295Z,0.00
2023-07-15T00:27:23.259Z,0.00
2023-07-15T00:28:23.245Z,0.00
2023-07-15T00:29:23.188Z,0.00
2023-07-15T00:30:23.157Z,0.00
2023-07-15T00:31:23.144Z,0.00
2023-07-15T00:32:23.116Z,0.00
2023-07-15T00:33:23.048Z,0.00
2023-07-15T00:34:23.034Z,0.00
2023-07-15T00:35:22.978Z,0.00
2023-07-15T00:36:22.958Z,0.00
2023-07-15T00:37:22.941Z,0.00
2023-07-15T00:38:22.872Z,0.00
2023-07-15T00:39:22.863Z,0.00
2023-07-15T00:40:22.800Z,0.00
2023-07-15T00:41:22.769Z,0.00
2023-07-15T00:42:22.734Z,0.00
2023-07-15T00:43:22.711Z,0.00
2023-07-15T00:44:22.664Z,0.00
2023-07-15T00:45:22.627Z,0.00
2023-07-15T00:46:22.603Z,0.00
2023-07-15T00:47:22.637Z,0.00
2023-07-15T00:48:22.523Z,0.00
2023-07-15T00:49:22.493Z,0.00
2023-07-15T00:50:22.459Z,0.00
2023-07-15T00:51:22.420Z,0.00
2023-07-15T00:52:22.429Z,0.00
2023-07-15T00:53:22.362Z,0.00
2023-07-15T00:54:22.313Z,0.00
2023-07-15T00:55:22.280Z,0.00
2023-07-15T00:56:22.245Z,0.00
2023-07-15T00:57:22.217Z,0.00
2023-07-15T00:58:22.167Z,0.00
2023-07-15T00:59:22.165Z,0.00
2023-07-15T01:00:22.101Z,0.00
2023-07-15T01:01:22.158Z,0.00
2023-07-15T01:02:22.183Z,0.00
2023-07-15T01:03:22.133Z,0.00
2023-07-15T01:04:21.974Z,0.00
2023-07-15T01:05:21.940Z,0.00
2023-07-15T01:06:21.893Z,0.00
2023-07-15T01:07:21.874Z,0.00
2023-07-15T01:08:21.815Z,0.00
2023-07-15T01:09:21.785Z,0.00
2023-07-15T01:10:21.771Z,0.00
2023-07-15T01:11:21.718Z,0.00
2023-07-15T01:12:21.677Z,0.00
2023-07-15T01:13:21.641Z,0.00
2023-07-15T01:14:21.643Z,0.00
2023-07-15T01:15:21.595Z,0.00
2023-07-15T01:16:21.564Z,0.00
2023-07-15T01:17:21.575Z,0.00
2023-07-15T01:18:21.469Z,0.00
2023-07-15T01:19:21.465Z,0.00
2023-07-15T01:20:21.398Z,0.00
2023-07-15T01:21:21.359Z,0.00
2023-07-15T01:22:21.358Z,0.00
2023-07-15T01:23:21.289Z,0.00
2023-07-15T01:24:21.257Z,0.00
2023-07-15T01:25:21.285Z,0.00
2023-07-15T01:26:21.190Z,0.00
2023-07-15T01:27:21.157Z,0.00
2023-07-15T01:28:21.111Z,0.00
2023-07-15T01:29:21.092Z,0.00
2023-07-15T01:30:21.052Z,0.00
2023-07-15T01:31:21.048Z,0.00
2023-07-15T01:32:20.988Z,0.00
2023-07-15T01:33:20.938Z,0.00
2023-07-15T01:34:21.018Z,0.00
2023-07-15T01:35:20.875Z,0.00
2023-07-15T01:36:20.832Z,0.00
2023-07-15T01:37:20.795Z,0.00
2023-07-15T01:38:20.819Z,0.00
2023-07-15T01:39:20.726Z,0.00
2023-07-15T01:40:20.694Z,0.00
2023-07-15T01:41:20.658Z,0.00
2023-07-15T01:42:20.637Z,0.00
2023-07-15T01:43:20.585Z,0.00
2023-07-15T01:44:20.582Z,0.00
2023-07-15T01:45:20.518Z,0.00
2023-07-15T01:46:20.507Z,0.00
2023-07-15T01:47:20.445Z,0.00
2023-07-15T01:48:20.413Z,0.00
2023-07-15T01:49:20.383Z,0.00
2023-07-15T01:50:20.357Z,0.00
2023-07-15T01:51:20.321Z,0.00
2023-07-15T01:52:20.273Z,0.00
2023-07-15T01:53:20.234Z,0.00
2023-07-15T01:54:20.206Z,0.00
2023-07-15T01:55:20.166Z,0.00
2023-07-15T01:56:20.142Z,0.00
2023-07-15T01:57:20.117Z,0.00
2023-07-15T01:58:20.063Z,0.00
2023-07-15T01:59:20.028Z,0.00
2023-07-15T02:00:19.988Z,0.00
2023-07-15T02:01:20.078Z,0.00
2023-07-15T02:02:19.968Z,0.00
2023-07-15T02:03:19.959Z,0.00
2023-07-15T02:04:19.856Z,0.00
2023-07-15T02:05:19.814Z,0.00
2023-07-15T02:06:19.828Z,0.00
2023-07-15T02:07:19.741Z,0.00
2023-07-15T02:08:19.717Z,0.00
2023-07-15T02:09:19.674Z,0.00
2023-07-15T02:10:19.637Z,0.00
2023-07-15T02:11:19.604Z,0.00
2023-07-15T02:12:19.562Z,0.00
2023-07-15T02:13:19.542Z,0.00
2023-07-15T02:14:19.511Z,0.00
2023-07-15T02:15:19.460Z,0.00
2023-07-15T02:16:19.482Z,0.00
2023-07-15T02:17:19.387Z,0.00
2023-07-15T02:18:19.354Z,0.00
2023-07-15T02:19:19.315Z,0.00
2023-07-15T02:20:19.280Z,0.00
2023-07-15T02:21:19.273Z,0.00
2023-07-15T02:22:19.249Z,0.00
2023-07-15T02:23:19.183Z,0.00
2023-07-15T02:24:19.142Z,0.00
2023-07-15T02:25:19.114Z,0.00
2023-07-15T02:26:19.076Z,0.00
2023-07-15T02:27:19.068Z,0.00
2023-07-15T02:28:19.015Z,0.00
2023-07-15T02:29:18.964Z,0.00
2023-07-15T02:30:18.931Z,0.00
2023-07-15T02:31:18.964Z,0.00
2023-07-15T02:32:18.881Z,0.00
2023-07-15T02:33:18.836Z,0.00
2023-07-15T02:34:18.810Z,0.00
2023-07-15T02:35:18.756Z,0.00
2023-07-15T02:36:18.720Z,0.00
2023-07-15T02:37:18.694Z,0.00
2023-07-15T02:38:18.648Z,0.00
2023-07-15T02:39:18.610Z,0.00
2023-07-15T02:40:18.587Z,0.00
2023-07-15T02:41:18.546Z,0.00
2023-07-15T02:42:18.506Z,0.00
2023-07-15T02:43:18.473Z,0.00
2023-07-15T02:44:18.439Z,0.00
2023-07-15T02:45:18.406Z,0.00
2023-07-15T02:46:18.632Z,0.00
2023-07-15T02:47:18.334Z,0.00
2023-07-15T02:48:18.294Z,0.00
2023-07-15T02:49:18.270Z,0.00
2023-07-15T02:50:18.257Z,0.00
2023-07-15T02:51:18.188Z,0.00
2023-07-15T02:52:18.162Z,0.00
2023-07-15T02:53:18.132Z,0.00
2023-07-15T02:54:18.085Z,4.00
2023-07-15T02:55:18.081Z,4.00
2023-07-15T02:56:18.029Z,4.00
2023-07-15T02:57:17.977Z,4.00
2023-07-15T02:58:17.944Z,4.00
2023-07-15T02:59:17.909Z,4.00
2023-07-15T03:00:17.885Z,4.00
2023-07-15T03:01:17.862Z,4.00
2023-07-15T03:02:17.802Z,8.00
2023-07-15T03:03:17.780Z,8.00
2023-07-15T03:04:17.733Z,8.00
2023-07-15T03:05:17.830Z,8.00
2023-07-15T03:06:17.707Z,8.00
2023-07-15T03:07:17.629Z,12.00
2023-07-15T03:08:17.603Z,12.00
2023-07-15T03:09:17.566Z,16.00
2023-07-15T03:10:17.549Z,16.00
2023-07-15T03:11:17.481Z,20.00
2023-07-15T03:12:17.456Z,24.00
2023-07-15T03:13:17.430Z,24.00
2023-07-15T03:14:17.380Z,28.00
2023-07-15T03:15:17.346Z,32.00
2023-07-15T03:16:17.580Z,36.00
2023-07-15T03:17:17.268Z,40.00
2023-07-15T03:18:17.238Z,44.00
2023-07-15T03:19:17.200Z,52.00
2023-07-15T03:20:17.165Z,56.00
2023-07-15T03:21:17.127Z,64.00
2023-07-15T03:22:17.113Z,68.00
2023-07-15T03:23:17.061Z,76.00
2023-07-15T03:24:17.026Z,88.00
2023-07-15T03:25:18.384Z,96.00
2023-07-15T03:26:17.234Z,100.00
2023-07-15T03:27:16.938Z,112.00
2023-07-15T03:28:16.883Z,124.00
2023-07-15T03:29:16.856Z,136.00
2023-07-15T03:30:16.817Z,148.00
2023-07-15T03:31:16.809Z,160.00
2023-07-15T03:32:16.748Z,176.00
2023-07-15T03:33:16.721Z,192.00
2023-07-15T03:34:16.672Z,212.00
2023-07-15T03:35:16.639Z,228.00
2023-07-15T03:36:16.852Z,252.00
2023-07-15T03:37:16.566Z,268.00
2023-07-15T03:38:16.530Z,288.00
2023-07-15T03:39:16.520Z,312.00
2023-07-15T03:40:16.458Z,332.00
2023-07-15T03:41:16.420Z,356.00
2023-07-15T03:42:16.389Z,376.00
2023-07-15T03:43:16.351Z,400.00
2023-07-15T03:44:16.328Z,428.00
2023-07-15T03:45:16.301Z,464.00
2023-07-15T03:46:16.548Z,496.00
2023-07-15T03:47:18.097Z,536.00
2023-07-15T03:48:16.182Z,572.00
2023-07-15T03:49:16.156Z,612.00
2023-07-15T03:50:16.114Z,652.00
2023-07-15T03:51:16.063Z,708.00
2023-07-15T03:52:16.033Z,784.00
2023-07-15T03:53:16.005Z,864.00
2023-07-15T03:54:15.984Z,928.00
2023-07-15T03:55:15.926Z,984.00
2023-07-15T03:56:16.120Z,1044.00
2023-07-15T03:57:15.856Z,1112.00
2023-07-15T03:58:15.844Z,1184.00
2023-07-15T03:59:15.797Z,1252.00
2023-07-15T04:00:15.747Z,1324.00
2023-07-15T04:01:15.724Z,1396.00
2023-07-15T04:02:15.685Z,1468.00
2023-07-15T04:03:15.660Z,1532.00
2023-07-15T04:04:15.722Z,1592.00
2023-07-15T04:05:15.583Z,1652.00
2023-07-15T04:06:15.758Z,1712.00
2023-07-15T04:07:15.499Z,1772.00
2023-07-15T04:08:15.479Z,1840.00
2023-07-15T04:09:15.451Z,1900.00
2023-07-15T04:10:15.441Z,1960.00
2023-07-15T04:11:15.374Z,2024.00
2023-07-15T04:12:15.330Z,2088.00
2023-07-15T04:13:15.285Z,2152.00
2023-07-15T04:14:15.256Z,2220.00
2023-07-15T04:15:15.231Z,2284.00
2023-07-15T04:16:15.587Z,2356.00
2023-07-15T04:17:15.157Z,2428.00
2023-07-15T04:18:15.134Z,2504.00
2023-07-15T04:19:15.077Z,2572.00
2023-07-15T04:20:15.130Z,2644.00
2023-07-15T04:21:15.003Z,2712.00
2023-07-15T04:22:14.984Z,2772.00
2023-07-15T04:23:14.982Z,2840.00
2023-07-15T04:24:14.902Z,2900.00
2023-07-15T04:25:14.863Z,2964.00
2023-07-15T04:26:15.000Z,3016.00
2023-07-15T04:27:14.792Z,3076.00
2023-07-15T04:28:14.763Z,3132.00
2023-07-15T04:29:14.740Z,3184.00
2023-07-15T04:30:14.694Z,3236.00
2023-07-15T04:31:14.660Z,3304.00
2023-07-15T04:32:14.627Z,3364.00
2023-07-15T04:33:14.577Z,3424.00
2023-07-15T04:34:14.546Z,3480.00
2023-07-15T04:35:14.526Z,3540.00
2023-07-15T04:36:14.652Z,3608.00
2023-07-15T04:37:14.438Z,3668.00
2023-07-15T04:38:14.409Z,3732.00
2023-07-15T04:39:14.366Z,3800.00
2023-07-15T04:40:14.333Z,3872.00
2023-07-15T04:41:14.308Z,3940.00
2023-07-15T04:42:14.262Z,4016.00
2023-07-15T04:43:14.236Z,4160.00
2023-07-15T04:44:14.198Z,5096.00
2023-07-15T04:45:14.154Z,6436.00
2023-07-15T04:46:14.403Z,7120.00
2023-07-15T04:47:14.098Z,7280.00
2023-07-15T04:48:14.050Z,7368.00
2023-07-15T04:49:14.018Z,7472.00
2023-07-15T04:50:13.988Z,7564.00
2023-07-15T04:51:13.945Z,7680.00
2023-07-15T04:52:13.927Z,7616.00
2023-07-15T04:53:13.879Z,7596.00
2023-07-15T04:54:13.845Z,7628.00
2023-07-15T04:55:13.808Z,7712.00
2023-07-15T04:56:13.917Z,7560.00
2023-07-15T04:57:13.763Z,7856.00
2023-07-15T04:58:13.707Z,7956.00
2023-07-15T04:59:13.669Z,8148.00
2023-07-15T05:00:13.641Z,8296.00
2023-07-15T05:01:13.757Z,8444.00
2023-07-15T05:02:13.603Z,8676.00
2023-07-15T05:03:13.566Z,9040.00
2023-07-15T05:04:13.498Z,9276.00
2023-07-15T05:05:13.486Z,9480.00
2023-07-15T05:06:13.436Z,9652.00
2023-07-15T05:07:13.426Z,9760.00
2023-07-15T05:08:13.378Z,10020.00
2023-07-15T05:09:13.359Z,10308.00
2023-07-15T05:10:13.307Z,10472.00
2023-07-15T05:11:23.025Z,10580.00
2023-07-15T05:12:13.237Z,10720.00
2023-07-15T05:13:21.556Z,10944.00
2023-07-15T05:14:13.178Z,11376.00
2023-07-15T05:15:13.142Z,11436.00
2023-07-15T05:16:13.149Z,11704.00
2023-07-15T05:17:13.077Z,11864.00
2023-07-15T05:18:13.158Z,12180.00
2023-07-15T05:19:13.015Z,12148.00
2023-07-15T05:20:12.979Z,11992.00
2023-07-15T05:21:13.175Z,12248.00
2023-07-15T05:22:12.908Z,12168.00
2023-07-15T05:23:12.878Z,12044.00
2023-07-15T05:24:12.835Z,12652.00
2023-07-15T05:25:15.099Z,12792.00
2023-07-15T05:26:12.777Z,12916.00
2023-07-15T05:27:12.736Z,13308.00
2023-07-15T05:28:12.707Z,13944.00
2023-07-15T05:29:12.674Z,14052.00
2023-07-15T05:30:12.654Z,14320.00
2023-07-15T05:31:12.934Z,14272.00
2023-07-15T05:32:12.571Z,14720.00
2023-07-15T05:33:12.539Z,14848.00
2023-07-15T05:34:12.529Z,14816.00
2023-07-15T05:35:12.486Z,15392.00
2023-07-15T05:36:12.454Z,15680.00
2023-07-15T05:37:12.410Z,11936.00
2023-07-15T05:38:12.403Z,15840.00
2023-07-15T05:39:12.345Z,16832.00
2023-07-15T05:40:12.316Z,17120.00
2023-07-15T05:41:12.438Z,17248.00
2023-07-15T05:42:12.250Z,17312.00
2023-07-15T05:43:12.216Z,17280.00
2023-07-15T05:44:12.179Z,17376.00
2023-07-15T05:45:12.201Z,14168.00
2023-07-15T05:46:12.142Z,13352.00
2023-07-15T05:47:12.212Z,11988.00
2023-07-15T05:48:12.106Z,14784.00
2023-07-15T05:49:12.025Z,14352.00
2023-07-15T05:50:11.995Z,16192.00
2023-07-15T05:51:12.227Z,13704.00
2023-07-15T05:52:11.924Z,17152.00
2023-07-15T05:53:11.944Z,17728.00
2023-07-15T05:54:11.862Z,17472.00
2023-07-15T05:55:11.852Z,17952.00
2023-07-15T05:56:11.798Z,17312.00
2023-07-15T05:57:11.782Z,18432.00
2023-07-15T05:58:11.760Z,16960.00
2023-07-15T05:59:11.711Z,18752.00
2023-07-15T06:00:11.690Z,19264.00
2023-07-15T06:01:11.817Z,19232.00
2023-07-15T06:02:11.607Z,19296.00
2023-07-15T06:03:11.716Z,19680.00
2023-07-15T06:04:11.595Z,20384.00
2023-07-15T06:05:11.529Z,21216.00
2023-07-15T06:06:11.484Z,20736.00
2023-07-15T06:07:11.453Z,21184.00
2023-07-15T06:08:11.437Z,20864.00
2023-07-15T06:09:11.389Z,20576.00
2023-07-15T06:10:11.370Z,20256.00
2023-07-15T06:11:11.402Z,20352.00
2023-07-15T06:12:11.331Z,16544.00
2023-07-15T06:13:11.270Z,20032.00
2023-07-15T06:14:11.232Z,20288.00
2023-07-15T06:15:11.207Z,17344.00
2023-07-15T06:16:11.167Z,18528.00
2023-07-15T06:17:11.173Z,16800.00
2023-07-15T06:18:11.182Z,17824.00
2023-07-15T06:19:11.073Z,19808.00
2023-07-15T06:20:11.043Z,19680.00
2023-07-15T06:21:11.060Z,19360.00
2023-07-15T06:22:10.979Z,19488.00
2023-07-15T06:23:11.021Z,16832.00
2023-07-15T06:24:10.942Z,19200.00
2023-07-15T06:25:10.893Z,19040.00
2023-07-15T06:26:10.861Z,19264.00
2023-07-15T06:27:10.836Z,19104.00
2023-07-15T06:28:10.812Z,19808.00
2023-07-15T06:29:10.786Z,20096.00
2023-07-15T06:30:10.740Z,19968.00
2023-07-15T06:31:11.850Z,20704.00
2023-07-15T06:32:10.685Z,21056.00
2023-07-15T06:33:10.731Z,21312.00
2023-07-15T06:34:10.611Z,21472.00
2023-07-15T06:35:10.606Z,23136.00
2023-07-15T06:36:10.562Z,23392.00
2023-07-15T06:37:10.536Z,22272.00
2023-07-15T06:38:10.498Z,20864.00
2023-07-15T06:39:11.059Z,9288.00
2023-07-15T06:40:10.427Z,11276.00
2023-07-15T06:41:30.314Z,22912.00
2023-07-15T06:42:30.255Z,23584.00
2023-07-15T06:43:30.226Z,22400.00
2023-07-15T06:44:30.195Z,7536.00
2023-07-15T06:45:30.274Z,6868.00
2023-07-15T06:46:30.204Z,10408.00
2023-07-15T06:47:30.159Z,8024.00
2023-07-15T06:48:30.077Z,9672.00
2023-07-15T06:49:42.453Z,11348.00
2023-07-15T06:51:12.891Z,10588.00
2023-07-15T06:52:12.789Z,13848.00
2023-07-15T06:53:08.483Z,11036.00
2023-07-15T06:54:08.436Z,13600.00
2023-07-15T06:55:08.397Z,28032.00
2023-07-15T06:56:18.974Z,20448.00
2023-07-15T06:57:21.616Z,13864.00
2023-07-15T06:58:21.590Z,17984.00
2023-07-15T06:59:21.545Z,16672.00
2023-07-15T07:00:21.514Z,18848.00
2023-07-15T07:01:12.493Z,11180.00
2023-07-15T07:02:41.618Z,20320.00
2023-07-15T07:03:52.638Z,18304.00
2023-07-15T07:04:43.153Z,11708.00
2023-07-15T07:05:43.143Z,11244.00
2023-07-15T07:06:43.100Z,12840.00
2023-07-15T07:07:43.063Z,11084.00
2023-07-15T07:08:43.034Z,11684.00
2023-07-15T07:09:43.022Z,10408.00
2023-07-15T07:10:42.988Z,10152.00
2023-07-15T07:11:42.939Z,10144.00
2023-07-15T07:12:42.905Z,9948.00
2023-07-15T07:13:42.883Z,9424.00
2023-07-15T07:14:42.845Z,8708.00
2023-07-15T07:15:42.824Z,7836.00
2023-07-15T07:16:42.778Z,7060.00
2023-07-15T07:17:42.953Z,6692.00
2023-07-15T07:18:42.759Z,6568.00
2023-07-15T07:19:42.691Z,6744.00
2023-07-15T07:20:42.662Z,7012.00
2023-07-15T07:21:42.618Z,7028.00
2023-07-15T07:22:42.629Z,6584.00
2023-07-15T07:23:42.553Z,6120.00
2023-07-15T07:24:42.549Z,6056.00
2023-07-15T07:25:42.488Z,6560.00
2023-07-15T07:26:42.474Z,6900.00
2023-07-15T07:27:42.422Z,7204.00
2023-07-15T07:28:42.402Z,7200.00
2023-07-15T07:29:42.369Z,7072.00
2023-07-15T07:30:42.386Z,7188.00
2023-07-15T07:31:42.301Z,7000.00
2023-07-15T07:32:42.282Z,6444.00
2023-07-15T07:33:42.238Z,5828.00
2023-07-15T07:34:42.204Z,5460.00
2023-07-15T07:35:42.162Z,5116.00
2023-07-15T07:36:42.146Z,4796.00
2023-07-15T07:37:42.095Z,4588.00
2023-07-15T07:38:42.073Z,4480.00
2023-07-15T07:39:42.039Z,4612.00
2023-07-15T07:40:42.004Z,4880.00
2023-07-15T07:41:41.984Z,5264.00
2023-07-15T07:42:41.940Z,5924.00
2023-07-15T07:43:41.897Z,6788.00
2023-07-15T07:44:41.868Z,7464.00
2023-07-15T07:45:41.837Z,7808.00
2023-07-15T07:46:41.849Z,8276.00
2023-07-15T07:47:41.795Z,8824.00
2023-07-15T07:48:41.738Z,8988.00
2023-07-15T07:49:41.704Z,8744.00
2023-07-15T07:50:41.673Z,8316.00
2023-07-15T07:51:41.676Z,8636.00
2023-07-15T07:52:41.635Z,8868.00
2023-07-15T07:53:41.607Z,8272.00
2023-07-15T07:54:41.543Z,7252.00
2023-07-15T07:55:41.522Z,6176.00
2023-07-15T07:56:41.490Z,5432.00
2023-07-15T07:57:41.447Z,5224.00
2023-07-15T07:58:41.425Z,5476.00
2023-07-15T07:59:41.373Z,5484.00
2023-07-15T08:00:41.360Z,5328.00
2023-07-15T08:01:41.311Z,5788.00
2023-07-15T08:02:41.395Z,6444.00
2023-07-15T08:03:41.350Z,7252.00
2023-07-15T08:04:41.281Z,8388.00
2023-07-15T08:05:41.188Z,9396.00
2023-07-15T08:06:41.143Z,10100.00
2023-07-15T08:07:41.112Z,10652.00
2023-07-15T08:08:41.081Z,9968.00
2023-07-15T08:09:41.040Z,9700.00
2023-07-15T08:10:41.031Z,9520.00
2023-07-15T08:11:40.983Z,10084.00
2023-07-15T08:12:40.952Z,9860.00
2023-07-15T08:13:40.912Z,9532.00
2023-07-15T08:14:40.875Z,9096.00
2023-07-15T08:15:40.868Z,8352.00
2023-07-15T08:39:41.659Z,8624.00
2023-07-15T08:40:41.648Z,8932.00
2023-07-15T08:41:41.582Z,8424.00
2023-07-15T08:42:41.563Z,7704.00
2023-07-15T08:45:13.410Z,4176.00
2023-07-15T08:46:13.398Z,3396.00
2023-07-15T08:47:13.362Z,2900.00
2023-07-15T08:48:13.287Z,2552.00
2023-07-15T08:49:13.251Z,2540.00
2023-07-15T08:50:13.236Z,2528.00
2023-07-15T08:51:13.387Z,2452.00
2023-07-15T08:52:13.170Z,2156.00
2023-07-15T08:53:13.142Z,1848.00
2023-07-15T08:54:13.084Z,1740.00
2023-07-15T08:55:13.072Z,1636.00
2023-07-15T08:56:13.026Z,1628.00
2023-07-15T08:57:12.991Z,1684.00
2023-07-15T08:58:12.950Z,1804.00
2023-07-15T08:59:12.938Z,1876.00
2023-07-15T09:00:12.954Z,1988.00
2023-07-15T09:01:13.313Z,1996.00
2023-07-15T09:02:12.840Z,2020.00
2023-07-15T09:03:12.794Z,2080.00
2023-07-15T09:04:12.819Z,2308.00
2023-07-15T09:05:12.732Z,2596.00
2023-07-15T09:06:12.675Z,2812.00
2023-07-15T09:07:12.640Z,2864.00
2023-07-15T09:08:12.610Z,2700.00
2023-07-15T09:09:12.567Z,2460.00
2023-07-15T09:10:12.543Z,2336.00
2023-07-15T09:11:12.753Z,2172.00
2023-07-15T09:12:12.462Z,1916.00
2023-07-15T09:13:12.440Z,1600.00
2023-07-15T09:14:12.393Z,1472.00
2023-07-15T09:15:12.348Z,1404.00
2023-07-15T09:16:12.342Z,1364.00
2023-07-15T09:17:12.326Z,1344.00
2023-07-15T09:18:12.301Z,1368.00
2023-07-15T09:19:12.230Z,1292.00
2023-07-15T09:20:12.190Z,1172.00
2023-07-15T09:21:12.298Z,1260.00
2023-07-15T09:22:12.128Z,1480.00
2023-07-15T09:23:12.162Z,1748.00
2023-07-15T09:24:12.056Z,2188.00
2023-07-15T09:25:12.009Z,2576.00
2023-07-15T09:26:11.972Z,2608.00
2023-07-15T09:27:11.935Z,2464.00
2023-07-15T09:28:11.903Z,2204.00
2023-07-15T09:29:11.894Z,2324.00
2023-07-15T09:30:11.827Z,2644.00
2023-07-15T09:31:11.928Z,2784.00
2023-07-15T09:32:11.915Z,2564.00
2023-07-15T09:33:11.780Z,2180.00
2023-07-15T09:34:11.687Z,1720.00
2023-07-15T09:35:11.668Z,1496.00
2023-07-15T09:36:11.604Z,1364.00
2023-07-15T09:37:11.563Z,1308.00
2023-07-15T09:38:11.546Z,1336.00
2023-07-15T09:39:11.504Z,1696.00
2023-07-15T09:40:11.457Z,2044.00
2023-07-15T09:41:11.434Z,2460.00
2023-07-15T09:42:11.399Z,2676.00
2023-07-15T09:43:11.341Z,2912.00
2023-07-15T09:44:11.333Z,3020.00
2023-07-15T09:45:11.300Z,3432.00
2023-07-15T09:46:11.258Z,4160.00
2023-07-15T09:47:11.213Z,4256.00
2023-07-15T09:48:11.271Z,3828.00
2023-07-15T09:49:11.144Z,3328.00
2023-07-15T09:50:11.123Z,2968.00
2023-07-15T09:51:11.070Z,3152.00
2023-07-15T09:52:11.022Z,3368.00
2023-07-15T09:53:10.990Z,3480.00
2023-07-15T09:54:10.949Z,3936.00
2023-07-15T09:55:10.907Z,4776.00
2023-07-15T09:56:10.925Z,6200.00
2023-07-15T09:57:10.864Z,7516.00
2023-07-15T09:58:10.806Z,8652.00
2023-07-15T09:59:10.773Z,9564.00
2023-07-15T10:00:10.744Z,9440.00
2023-07-15T10:01:10.742Z,8984.00
2023-07-15T10:02:10.664Z,8224.00
2023-07-15T10:03:10.714Z,7708.00
2023-07-15T10:04:10.658Z,7444.00
2023-07-15T10:05:10.547Z,7540.00
2023-07-15T10:06:10.515Z,7664.00
2023-07-15T10:07:10.482Z,7376.00
2023-07-15T10:08:10.464Z,7136.00
2023-07-15T10:09:10.421Z,6876.00
2023-07-15T10:10:10.387Z,6820.00
2023-07-15T10:11:10.342Z,7000.00
2023-07-15T10:12:10.305Z,7680.00
2023-07-15T10:13:10.268Z,8616.00
2023-07-15T10:14:10.235Z,8924.00
2023-07-15T10:15:10.209Z,7848.00
2023-07-15T10:16:10.184Z,6616.00
2023-07-15T10:17:10.114Z,6312.00
2023-07-15T10:18:10.118Z,6176.00
2023-07-15T10:19:10.042Z,6096.00
2023-07-15T10:20:10.037Z,5980.00
2023-07-15T10:21:09.972Z,5924.00
2023-07-15T10:22:09.955Z,5916.00
2023-07-15T10:23:10.002Z,6044.00
2023-07-15T10:24:09.874Z,6484.00
2023-07-15T10:25:09.827Z,7552.00
2023-07-15T10:26:09.834Z,8900.00
2023-07-15T10:27:09.800Z,10232.00
2023-07-15T10:28:09.728Z,10576.00
2023-07-15T10:29:09.690Z,8888.00
2023-07-15T10:30:09.674Z,6924.00
2023-07-15T10:31:09.726Z,6548.00
2023-07-15T10:32:09.721Z,6388.00
2023-07-15T10:33:09.631Z,6324.00
2023-07-15T10:34:09.513Z,7036.00
2023-07-15T10:35:09.490Z,8532.00
2023-07-15T10:36:09.434Z,9376.00
2023-07-15T10:37:09.399Z,9000.00
2023-07-15T10:38:09.383Z,9848.00
2023-07-15T10:39:09.358Z,11920.00
2023-07-15T10:40:09.295Z,14596.00
2023-07-15T10:41:09.289Z,17600.00
2023-07-15T10:42:09.226Z,18528.00
2023-07-15T10:43:09.194Z,18080.00
2023-07-15T10:44:09.173Z,18304.00
2023-07-15T10:45:09.127Z,17664.00
2023-07-15T10:46:09.097Z,15424.00
2023-07-15T10:47:09.107Z,14080.00
2023-07-15T10:48:09.074Z,13184.00
2023-07-15T10:49:09.000Z,12292.00
2023-07-15T10:50:08.956Z,11368.00
2023-07-15T10:51:08.914Z,10620.00
2023-07-15T10:52:08.891Z,9740.00
2023-07-15T10:53:08.849Z,8992.00
2023-07-15T10:54:08.838Z,8664.00
2023-07-15T10:55:08.787Z,8648.00
2023-07-15T10:56:08.747Z,8428.00
2023-07-15T10:57:08.700Z,8332.00
2023-07-15T10:58:08.673Z,7832.00
2023-07-15T10:59:08.633Z,7172.00
2023-07-15T11:00:09.616Z,7652.00
2023-07-15T11:01:08.645Z,7316.00
2023-07-15T11:02:08.550Z,6656.00
2023-07-15T11:03:08.528Z,6864.00
2023-07-15T11:04:08.485Z,8356.00
2023-07-15T11:05:08.527Z,10252.00
2023-07-15T11:06:10.495Z,11008.00
2023-07-15T11:07:08.401Z,9948.00
2023-07-15T11:42:57.326Z,16176.00
2023-07-15T11:43:36.284Z,16172.00
2023-07-15T11:44:36.480Z,16832.00
2023-07-15T11:45:41.356Z,13612.00
2023-07-15T11:46:35.598Z,12064.00
2023-07-15T11:47:35.657Z,13568.00
2023-07-15T11:48:36.750Z,15192.00
